Evanton, United Kingdom
Current Conditions -  °F | °C
As of 2:20 AM on Sunday 26 Oct 2014 (Local Time) from EGPE Reporting Station
Drizzle Drizzle  
Wind Chill: 52°   Ceiling: Unl
Heat Index: 52°   Visibility: 6mi
Dew Point: 46°   Wind: 32mph
Humidity: 82%   Direction: 210°SSW
Pressure: 29.41"   Gusts: NA
Location:  57.66°N, 4.34°W
Report Text: EGPE 260120Z AUTO 21028KT 9999 DZ SCT041/// SCT048/// 11/08 Q0996
Loading
Personal Weather Stations






























Interactive Weather Map
Tropical Storm Tracking
New forecast layout! Learn more

10-Day Weather Forecast

Advertisements
Track Severe Weather on mobile